sensor_id;sensor_type;location;lat;lon;timestamp;temperature;humidity
11091;DHT22;5599;52.210;21.046;2022-08-19T00:02:18;24.20;37.50
11091;DHT22;5599;52.210;21.046;2022-08-19T00:04:48;24.20;1.00
11091;DHT22;5599;52.210;21.046;2022-08-19T00:07:20;24.20;99.90
11091;DHT22;5599;52.210;21.046;2022-08-19T00:09:51;24.20;1.00
11091;DHT22;5599;52.210;21.046;2022-08-19T00:12:23;24.20;1.00
11091;DHT22;5599;52.210;21.046;2022-08-19T00:14:52;24.20;99.90
11091;DHT22;5599;52.210;21.046;2022-08-19T00:17:23;24.20;99.90
11091;DHT22;5599;52.210;21.046;2022-08-19T00:19:52;24.10;1.00
11091;DHT22;5599;52.210;21.046;2022-08-19T00:22:21;24.10;1.00
11091;DHT22;5599;52.210;21.046;2022-08-19T00:24:52;23.90;99.90
11091;DHT22;5599;52.210;21.046;2022-08-19T00:27:23;23.90;79.10
11091;DHT22;5599;52.210;21.046;2022-08-19T00:29:53;23.90;99.90
11091;DHT22;5599;52.210;21.046;2022-08-19T00:32:23;23.80;1.00
11091;DHT22;5599;52.210;21.046;2022-08-19T00:34:53;23.90;99.90
11091;DHT22;5599;52.210;21.046;2022-08-19T00:37:24;23.80;99.90
11091;DHT22;5599;52.210;21.046;2022-08-19T00:39:55;23.70;99.90
11091;DHT22;5599;52.210;21.046;2022-08-19T00:42:25;23.70;1.00
11091;DHT22;5599;52.210;21.046;2022-08-19T00:44:56;23.70;1.00
11091;DHT22;5599;52.210;21.046;2022-08-19T00:47:26;23.80;1.00
11091;DHT22;5599;52.210;21.046;2022-08-19T00:49:57;23.80;1.00
11091;DHT22;5599;52.210;21.046;2022-08-19T00:52:31;23.70;99.90
11091;DHT22;5599;52.210;21.046;2022-08-19T00:55:04;23.70;1.00
11091;DHT22;5599;52.210;21.046;2022-08-19T00:57:37;23.60;1.00
11091;DHT22;5599;52.210;21.046;2022-08-19T01:00:09;23.50;99.90
11091;DHT22;5599;52.210;21.046;2022-08-19T01:02:40;23.30;1.00
11091;DHT22;5599;52.210;21.046;2022-08-19T01:05:13;23.30;84.60
11091;DHT22;5599;52.210;21.046;2022-08-19T01:07:43;23.20;46.50
11091;DHT22;5599;52.210;21.046;2022-08-19T01:10:17;23.20;99.90
11091;DHT22;5599;52.210;21.046;2022-08-19T01:12:49;23.10;99.90
11091;DHT22;5599;52.210;21.046;2022-08-19T01:15:22;23.00;99.90
11091;DHT22;5599;52.210;21.046;2022-08-19T01:17:53;23.00;99.90
11091;DHT22;5599;52.210;21.046;2022-08-19T01:20:24;22.90;99.90
11091;DHT22;5599;52.210;21.046;2022-08-19T01:22:56;22.90;99.90
11091;DHT22;5599;52.210;21.046;2022-08-19T01:25:29;23.00;99.90
11091;DHT22;5599;52.210;21.046;2022-08-19T01:27:59;23.00;99.90
11091;DHT22;5599;52.210;21.046;2022-08-19T01:30:37;23.00;28.40
11091;DHT22;5599;52.210;21.046;2022-08-19T01:33:11;23.00;91.00
11091;DHT22;5599;52.210;21.046;2022-08-19T01:35:41;22.90;79.30
11091;DHT22;5599;52.210;21.046;2022-08-19T01:38:21;23.00;1.00
11091;DHT22;5599;52.210;21.046;2022-08-19T01:40:51;23.00;6.30
11091;DHT22;5599;52.210;21.046;2022-08-19T01:43:21;22.90;99.90
11091;DHT22;5599;52.210;21.046;2022-08-19T01:45:50;22.90;99.90
11091;DHT22;5599;52.210;21.046;2022-08-19T01:48:20;22.90;51.20
11091;DHT22;5599;52.210;21.046;2022-08-19T01:50:49;22.90;99.90
11091;DHT22;5599;52.210;21.046;2022-08-19T01:53:20;22.80;11.50
11091;DHT22;5599;52.210;21.046;2022-08-19T01:55:53;22.70;99.90
11091;DHT22;5599;52.210;21.046;2022-08-19T01:58:25;22.60;99.90
11091;DHT22;5599;52.210;21.046;2022-08-19T02:00:57;22.60;99.90
11091;DHT22;5599;52.210;21.046;2022-08-19T02:03:27;22.50;99.90
11091;DHT22;5599;52.210;21.046;2022-08-19T02:05:57;22.50;99.90
11091;DHT22;5599;52.210;21.046;2022-08-19T02:08:31;22.40;99.90
11091;DHT22;5599;52.210;21.046;2022-08-19T02:11:00;22.50;99.90
11091;DHT22;5599;52.210;21.046;2022-08-19T02:13:30;22.50;1.00
11091;DHT22;5599;52.210;21.046;2022-08-19T02:15:59;22.50;99.90
11091;DHT22;5599;52.210;21.046;2022-08-19T02:18:30;22.50;99.90
11091;DHT22;5599;52.210;21.046;2022-08-19T02:21:01;22.50;1.00
11091;DHT22;5599;52.210;21.046;2022-08-19T02:23:31;22.50;99.90
11091;DHT22;5599;52.210;21.046;2022-08-19T02:26:00;22.40;99.90
11091;DHT22;5599;52.210;21.046;2022-08-19T02:28:30;22.40;99.90
11091;DHT22;5599;52.210;21.046;2022-08-19T02:31:00;22.20;1.00
11091;DHT22;5599;52.210;21.046;2022-08-19T02:33:30;22.20;1.00
11091;DHT22;5599;52.210;21.046;2022-08-19T02:35:59;22.20;1.00
11091;DHT22;5599;52.210;21.046;2022-08-19T02:38:34;22.20;1.00
11091;DHT22;5599;52.210;21.046;2022-08-19T02:41:05;22.20;1.00
11091;DHT22;5599;52.210;21.046;2022-08-19T02:43:34;22.10;1.00
11091;DHT22;5599;52.210;21.046;2022-08-19T02:46:12;22.00;1.00
11091;DHT22;5599;52.210;21.046;2022-08-19T02:48:42;22.10;1.00
11091;DHT22;5599;52.210;21.046;2022-08-19T02:51:16;22.10;1.00
11091;DHT22;5599;52.210;21.046;2022-08-19T02:53:48;22.10;1.00
11091;DHT22;5599;52.210;21.046;2022-08-19T02:56:18;22.00;1.00
11091;DHT22;5599;52.210;21.046;2022-08-19T02:58:48;22.00;1.00
11091;DHT22;5599;52.210;21.046;2022-08-19T03:01:23;22.00;1.00
11091;DHT22;5599;52.210;21.046;2022-08-19T03:03:54;22.00;1.00
11091;DHT22;5599;52.210;21.046;2022-08-19T03:06:23;22.00;1.00
11091;DHT22;5599;52.210;21.046;2022-08-19T03:08:54;22.00;1.00
11091;DHT22;5599;52.210;21.046;2022-08-19T03:11:26;22.00;1.00
11091;DHT22;5599;52.210;21.046;2022-08-19T03:13:56;21.90;1.00
11091;DHT22;5599;52.210;21.046;2022-08-19T03:16:28;22.00;1.00
11091;DHT22;5599;52.210;21.046;2022-08-19T03:19:01;21.90;1.00
11091;DHT22;5599;52.210;21.046;2022-08-19T03:21:32;22.00;1.00
11091;DHT22;5599;52.210;21.046;2022-08-19T03:24:05;22.00;1.00
11091;DHT22;5599;52.210;21.046;2022-08-19T03:26:39;22.00;1.00
11091;DHT22;5599;52.210;21.046;2022-08-19T03:29:09;22.10;1.00
11091;DHT22;5599;52.210;21.046;2022-08-19T03:31:41;22.00;1.00
11091;DHT22;5599;52.210;21.046;2022-08-19T03:34:22;22.10;1.00
11091;DHT22;5599;52.210;21.046;2022-08-19T03:36:54;22.10;1.00
11091;DHT22;5599;52.210;21.046;2022-08-19T03:39:26;22.10;1.00
11091;DHT22;5599;52.210;21.046;2022-08-19T03:41:55;22.10;1.00
11091;DHT22;5599;52.210;21.046;2022-08-19T03:44:47;22.10;1.00
11091;DHT22;5599;52.210;21.046;2022-08-19T03:47:16;22.20;1.00
11091;DHT22;5599;52.210;21.046;2022-08-19T03:49:46;22.40;1.00
11091;DHT22;5599;52.210;21.046;2022-08-19T03:52:15;22.40;1.00
11091;DHT22;5599;52.210;21.046;2022-08-19T03:54:47;22.40;1.00
11091;DHT22;5599;52.210;21.046;2022-08-19T03:57:16;22.50;99.90
11091;DHT22;5599;52.210;21.046;2022-08-19T03:59:45;22.50;99.90
11091;DHT22;5599;52.210;21.046;2022-08-19T04:02:14;22.60;99.90
11091;DHT22;5599;52.210;21.046;2022-08-19T04:04:44;22.50;99.90
11091;DHT22;5599;52.210;21.046;2022-08-19T04:07:14;22.50;99.90
11091;DHT22;5599;52.210;21.046;2022-08-19T04:09:50;22.40;99.90
11091;DHT22;5599;52.210;21.046;2022-08-19T04:12:24;22.50;99.90
11091;DHT22;5599;52.210;21.046;2022-08-19T04:16:05;22.50;99.90
11091;DHT22;5599;52.210;21.046;2022-08-19T04:18:35;22.60;99.90
11091;DHT22;5599;52.210;21.046;2022-08-19T04:21:06;22.60;99.90
11091;DHT22;5599;52.210;21.046;2022-08-19T04:23:36;22.50;99.90
11091;DHT22;5599;52.210;21.046;2022-08-19T04:26:15;22.50;99.90
11091;DHT22;5599;52.210;21.046;2022-08-19T04:28:46;22.50;99.90
11091;DHT22;5599;52.210;21.046;2022-08-19T04:31:19;22.70;99.90
11091;DHT22;5599;52.210;21.046;2022-08-19T04:33:49;22.80;99.90
11091;DHT22;5599;52.210;21.046;2022-08-19T04:36:20;23.00;99.90
11091;DHT22;5599;52.210;21.046;2022-08-19T04:38:53;23.30;99.90
11091;DHT22;5599;52.210;21.046;2022-08-19T04:41:25;23.80;1.00
11091;DHT22;5599;52.210;21.046;2022-08-19T04:44:12;24.10;1.00
11091;DHT22;5599;52.210;21.046;2022-08-19T04:46:42;24.60;1.00
11091;DHT22;5599;52.210;21.046;2022-08-19T04:49:20;24.90;68.50
11091;DHT22;5599;52.210;21.046;2022-08-19T04:51:51;25.30;99.90
11091;DHT22;5599;52.210;21.046;2022-08-19T04:54:23;25.50;47.00
11091;DHT22;5599;52.210;21.046;2022-08-19T04:57:08;25.80;25.60
11091;DHT22;5599;52.210;21.046;2022-08-19T04:59:38;25.90;99.90
11091;DHT22;5599;52.210;21.046;2022-08-19T05:02:09;25.90;1.00
11091;DHT22;5599;52.210;21.046;2022-08-19T05:04:38;25.90;99.90
11091;DHT22;5599;52.210;21.046;2022-08-19T05:07:08;26.20;1.00
11091;DHT22;5599;52.210;21.046;2022-08-19T05:09:38;26.50;1.00
11091;DHT22;5599;52.210;21.046;2022-08-19T05:12:27;27.10;1.00
11091;DHT22;5599;52.210;21.046;2022-08-19T05:14:58;27.50;99.90
11091;DHT22;5599;52.210;21.046;2022-08-19T05:17:28;27.50;99.90
11091;DHT22;5599;52.210;21.046;2022-08-19T05:20:06;27.40;1.00
11091;DHT22;5599;52.210;21.046;2022-08-19T05:22:53;27.20;99.90
11091;DHT22;5599;52.210;21.046;2022-08-19T05:25:23;26.90;99.90
11091;DHT22;5599;52.210;21.046;2022-08-19T05:27:55;26.60;1.00
11091;DHT22;5599;52.210;21.046;2022-08-19T05:30:24;26.40;1.00
11091;DHT22;5599;52.210;21.046;2022-08-19T05:33:13;26.40;1.00
11091;DHT22;5599;52.210;21.046;2022-08-19T05:35:43;26.60;1.00
11091;DHT22;5599;52.210;21.046;2022-08-19T05:38:14;26.40;99.90
11091;DHT22;5599;52.210;21.046;2022-08-19T05:40:43;26.50;99.90
11091;DHT22;5599;52.210;21.046;2022-08-19T05:43:16;26.30;27.50
11091;DHT22;5599;52.210;21.046;2022-08-19T05:45:46;26.30;99.90
11091;DHT22;5599;52.210;21.046;2022-08-19T05:48:16;26.40;99.90
11091;DHT22;5599;52.210;21.046;2022-08-19T05:50:48;26.50;1.00
11091;DHT22;5599;52.210;21.046;2022-08-19T05:53:20;26.70;83.80
11091;DHT22;5599;52.210;21.046;2022-08-19T05:55:49;26.90;21.20
11091;DHT22;5599;52.210;21.046;2022-08-19T05:58:20;27.30;33.20
11091;DHT22;5599;52.210;21.046;2022-08-19T06:00:54;27.80;99.90
11091;DHT22;5599;52.210;21.046;2022-08-19T06:03:25;28.20;99.90
11091;DHT22;5599;52.210;21.046;2022-08-19T06:05:55;28.50;1.00
11091;DHT22;5599;52.210;21.046;2022-08-19T06:08:26;28.60;1.00
11091;DHT22;5599;52.210;21.046;2022-08-19T06:11:17;28.60;99.90
11091;DHT22;5599;52.210;21.046;2022-08-19T06:13:51;28.50;1.00
11091;DHT22;5599;52.210;21.046;2022-08-19T06:16:27;28.60;1.00
11091;DHT22;5599;52.210;21.046;2022-08-19T06:19:02;28.60;4.00
11091;DHT22;5599;52.210;21.046;2022-08-19T06:21:33;28.80;99.90
11091;DHT22;5599;52.210;21.046;2022-08-19T06:24:06;28.70;1.00
11091;DHT22;5599;52.210;21.046;2022-08-19T06:26:39;28.60;99.90
11091;DHT22;5599;52.210;21.046;2022-08-19T06:29:13;28.50;99.90
11091;DHT22;5599;52.210;21.046;2022-08-19T06:31:54;28.50;1.00
11091;DHT22;5599;52.210;21.046;2022-08-19T06:34:24;28.50;1.00
11091;DHT22;5599;52.210;21.046;2022-08-19T06:36:56;28.60;99.90
11091;DHT22;5599;52.210;21.046;2022-08-19T06:39:32;28.60;99.90
11091;DHT22;5599;52.210;21.046;2022-08-19T06:42:04;29.00;99.90
11091;DHT22;5599;52.210;21.046;2022-08-19T06:44:40;29.40;99.90
11091;DHT22;5599;52.210;21.046;2022-08-19T06:47:17;29.80;1.00
11091;DHT22;5599;52.210;21.046;2022-08-19T06:49:55;30.30;99.90
11091;DHT22;5599;52.210;21.046;2022-08-19T06:52:34;30.90;1.00
11091;DHT22;5599;52.210;21.046;2022-08-19T06:55:05;30.40;99.90
11091;DHT22;5599;52.210;21.046;2022-08-19T06:57:35;30.60;1.00
11091;DHT22;5599;52.210;21.046;2022-08-19T07:00:08;30.40;1.00
11091;DHT22;5599;52.210;21.046;2022-08-19T07:02:40;30.10;1.00
11091;DHT22;5599;52.210;21.046;2022-08-19T07:05:22;29.50;99.90
11091;DHT22;5599;52.210;21.046;2022-08-19T07:07:52;29.70;99.90
11091;DHT22;5599;52.210;21.046;2022-08-19T07:10:24;30.10;49.20
11091;DHT22;5599;52.210;21.046;2022-08-19T07:12:54;30.30;1.00
11091;DHT22;5599;52.210;21.046;2022-08-19T07:15:25;30.30;99.90
11091;DHT22;5599;52.210;21.046;2022-08-19T07:17:55;30.10;99.90
11091;DHT22;5599;52.210;21.046;2022-08-19T07:20:26;30.00;6.10
11091;DHT22;5599;52.210;21.046;2022-08-19T07:22:56;30.40;1.00
11091;DHT22;5599;52.210;21.046;2022-08-19T07:25:27;30.90;1.00
11091;DHT22;5599;52.210;21.046;2022-08-19T07:27:59;30.90;1.00
11091;DHT22;5599;52.210;21.046;2022-08-19T07:30:31;31.20;99.90
11091;DHT22;5599;52.210;21.046;2022-08-19T07:33:01;31.70;99.90
11091;DHT22;5599;52.210;21.046;2022-08-19T07:35:32;32.00;99.90
11091;DHT22;5599;52.210;21.046;2022-08-19T07:38:01;32.30;1.00
11091;DHT22;5599;52.210;21.046;2022-08-19T07:40:31;32.70;1.00
11091;DHT22;5599;52.210;21.046;2022-08-19T07:43:01;32.50;99.90
11091;DHT22;5599;52.210;21.046;2022-08-19T07:45:32;32.40;99.90
11091;DHT22;5599;52.210;21.046;2022-08-19T07:48:02;32.10;1.00
11091;DHT22;5599;52.210;21.046;2022-08-19T07:50:32;31.60;1.00
11091;DHT22;5599;52.210;21.046;2022-08-19T07:53:02;31.90;1.00
11091;DHT22;5599;52.210;21.046;2022-08-19T07:55:31;32.00;1.00
11091;DHT22;5599;52.210;21.046;2022-08-19T07:58:10;32.10;1.00
11091;DHT22;5599;52.210;21.046;2022-08-19T08:00:42;32.40;1.00
11091;DHT22;5599;52.210;21.046;2022-08-19T08:03:13;32.70;1.00
11091;DHT22;5599;52.210;21.046;2022-08-19T08:05:43;32.50;1.00
11091;DHT22;5599;52.210;21.046;2022-08-19T08:08:30;32.70;1.00
11091;DHT22;5599;52.210;21.046;2022-08-19T08:11:20;32.50;1.00
11091;DHT22;5599;52.210;21.046;2022-08-19T08:13:50;32.80;1.00
11091;DHT22;5599;52.210;21.046;2022-08-19T08:16:34;33.00;1.00
11091;DHT22;5599;52.210;21.046;2022-08-19T08:19:13;33.20;1.00
11091;DHT22;5599;52.210;21.046;2022-08-19T08:21:53;33.50;1.00
11091;DHT22;5599;52.210;21.046;2022-08-19T08:24:23;33.50;1.00
11091;DHT22;5599;52.210;21.046;2022-08-19T08:26:55;33.70;1.00
11091;DHT22;5599;52.210;21.046;2022-08-19T08:29:29;33.30;1.00
11091;DHT22;5599;52.210;21.046;2022-08-19T08:32:03;33.30;1.00
11091;DHT22;5599;52.210;21.046;2022-08-19T08:34:42;33.50;1.00
11091;DHT22;5599;52.210;21.046;2022-08-19T08:37:19;33.70;1.00
11091;DHT22;5599;52.210;21.046;2022-08-19T08:39:50;33.80;1.00
11091;DHT22;5599;52.210;21.046;2022-08-19T08:42:26;34.00;1.00
11091;DHT22;5599;52.210;21.046;2022-08-19T08:45:49;34.00;1.00
11091;DHT22;5599;52.210;21.046;2022-08-19T08:48:27;33.80;1.00
11091;DHT22;5599;52.210;21.046;2022-08-19T08:51:04;33.40;1.00
11091;DHT22;5599;52.210;21.046;2022-08-19T08:53:39;33.10;1.00
11091;DHT22;5599;52.210;21.046;2022-08-19T08:56:12;32.50;1.00
11091;DHT22;5599;52.210;21.046;2022-08-19T08:58:56;32.00;1.00
11091;DHT22;5599;52.210;21.046;2022-08-19T09:01:34;31.60;1.00
11091;DHT22;5599;52.210;21.046;2022-08-19T09:04:19;32.00;1.00
11091;DHT22;5599;52.210;21.046;2022-08-19T09:10:08;33.10;1.00
11091;DHT22;5599;52.210;21.046;2022-08-19T09:12:43;33.50;1.00
11091;DHT22;5599;52.210;21.046;2022-08-19T09:15:18;33.10;1.00
11091;DHT22;5599;52.210;21.046;2022-08-19T09:18:00;33.50;1.00
11091;DHT22;5599;52.210;21.046;2022-08-19T09:20:36;33.90;1.00
11091;DHT22;5599;52.210;21.046;2022-08-19T09:23:12;33.50;1.00
11091;DHT22;5599;52.210;21.046;2022-08-19T09:25:54;33.50;1.00
11091;DHT22;5599;52.210;21.046;2022-08-19T09:28:25;33.60;1.00
11091;DHT22;5599;52.210;21.046;2022-08-19T09:30:55;33.40;1.00
11091;DHT22;5599;52.210;21.046;2022-08-19T09:33:25;33.40;1.00
11091;DHT22;5599;52.210;21.046;2022-08-19T09:36:04;33.30;1.00
11091;DHT22;5599;52.210;21.046;2022-08-19T09:38:39;33.10;1.00
11091;DHT22;5599;52.210;21.046;2022-08-19T09:41:12;33.00;1.00
11091;DHT22;5599;52.210;21.046;2022-08-19T09:43:43;33.40;1.00
11091;DHT22;5599;52.210;21.046;2022-08-19T09:46:14;33.40;1.00
11091;DHT22;5599;52.210;21.046;2022-08-19T09:48:45;33.50;1.00
11091;DHT22;5599;52.210;21.046;2022-08-19T09:51:19;33.80;1.00
11091;DHT22;5599;52.210;21.046;2022-08-19T09:53:51;34.10;1.00
11091;DHT22;5599;52.210;21.046;2022-08-19T09:56:22;33.80;1.00
11091;DHT22;5599;52.210;21.046;2022-08-19T09:58:57;33.40;1.00
11091;DHT22;5599;52.210;21.046;2022-08-19T10:01:28;33.30;1.00
11091;DHT22;5599;52.210;21.046;2022-08-19T10:04:00;33.40;1.00
11091;DHT22;5599;52.210;21.046;2022-08-19T10:06:42;33.40;1.00
11091;DHT22;5599;52.210;21.046;2022-08-19T10:09:15;33.50;99.90
11091;DHT22;5599;52.210;21.046;2022-08-19T10:12:02;33.40;1.00
11091;DHT22;5599;52.210;21.046;2022-08-19T10:14:37;33.10;1.00
11091;DHT22;5599;52.210;21.046;2022-08-19T10:17:07;32.80;1.00
11091;DHT22;5599;52.210;21.046;2022-08-19T10:19:47;33.10;1.00
11091;DHT22;5599;52.210;21.046;2022-08-19T10:22:23;33.30;1.00
11091;DHT22;5599;52.210;21.046;2022-08-19T10:24:53;33.40;1.00
11091;DHT22;5599;52.210;21.046;2022-08-19T10:27:27;33.30;1.00
11091;DHT22;5599;52.210;21.046;2022-08-19T10:29:58;33.00;1.00
11091;DHT22;5599;52.210;21.046;2022-08-19T10:32:28;32.70;1.00
11091;DHT22;5599;52.210;21.046;2022-08-19T10:35:01;32.50;1.00
11091;DHT22;5599;52.210;21.046;2022-08-19T10:37:36;32.70;1.00
11091;DHT22;5599;52.210;21.046;2022-08-19T10:40:23;32.50;1.00
11091;DHT22;5599;52.210;21.046;2022-08-19T10:42:53;32.40;1.00
11091;DHT22;5599;52.210;21.046;2022-08-19T10:45:24;32.50;1.00
11091;DHT22;5599;52.210;21.046;2022-08-19T10:47:55;32.70;1.00
11091;DHT22;5599;52.210;21.046;2022-08-19T10:50:25;32.80;1.00
11091;DHT22;5599;52.210;21.046;2022-08-19T10:53:14;32.70;1.00
11091;DHT22;5599;52.210;21.046;2022-08-19T10:55:44;32.80;1.00
11091;DHT22;5599;52.210;21.046;2022-08-19T10:58:31;32.80;1.00
11091;DHT22;5599;52.210;21.046;2022-08-19T11:01:01;33.00;1.00
11091;DHT22;5599;52.210;21.046;2022-08-19T11:03:30;33.00;1.00
11091;DHT22;5599;52.210;21.046;2022-08-19T11:06:19;33.10;1.00
11091;DHT22;5599;52.210;21.046;2022-08-19T11:08:50;33.40;1.00
11091;DHT22;5599;52.210;21.046;2022-08-19T11:11:23;33.30;1.00
11091;DHT22;5599;52.210;21.046;2022-08-19T11:13:53;33.20;1.00
11091;DHT22;5599;52.210;21.046;2022-08-19T11:16:24;33.40;1.00
11091;DHT22;5599;52.210;21.046;2022-08-19T11:18:57;33.50;1.00
11091;DHT22;5599;52.210;21.046;2022-08-19T11:21:29;33.80;1.00
11091;DHT22;5599;52.210;21.046;2022-08-19T11:24:03;33.90;1.00
11091;DHT22;5599;52.210;21.046;2022-08-19T11:26:35;34.20;1.00
11091;DHT22;5599;52.210;21.046;2022-08-19T11:29:06;34.30;1.00
11091;DHT22;5599;52.210;21.046;2022-08-19T11:31:40;34.00;1.00
11091;DHT22;5599;52.210;21.046;2022-08-19T11:34:11;33.80;1.00
11091;DHT22;5599;52.210;21.046;2022-08-19T11:36:43;33.60;1.00
11091;DHT22;5599;52.210;21.046;2022-08-19T11:39:16;33.80;1.00
11091;DHT22;5599;52.210;21.046;2022-08-19T11:41:46;34.10;1.00
11091;DHT22;5599;52.210;21.046;2022-08-19T11:44:16;34.30;1.00
11091;DHT22;5599;52.210;21.046;2022-08-19T11:46:46;34.30;1.00
11091;DHT22;5599;52.210;21.046;2022-08-19T11:49:17;34.40;1.00
11091;DHT22;5599;52.210;21.046;2022-08-19T11:51:49;34.20;1.00
11091;DHT22;5599;52.210;21.046;2022-08-19T11:54:22;33.80;1.00
11091;DHT22;5599;52.210;21.046;2022-08-19T11:56:52;33.50;1.00
11091;DHT22;5599;52.210;21.046;2022-08-19T11:59:27;33.70;1.00
11091;DHT22;5599;52.210;21.046;2022-08-19T12:01:57;34.00;1.00
11091;DHT22;5599;52.210;21.046;2022-08-19T12:04:27;34.40;1.00
11091;DHT22;5599;52.210;21.046;2022-08-19T12:06:57;34.40;1.00
11091;DHT22;5599;52.210;21.046;2022-08-19T12:09:28;34.30;1.00
11091;DHT22;5599;52.210;21.046;2022-08-19T12:11:57;34.10;99.90
11091;DHT22;5599;52.210;21.046;2022-08-19T12:14:30;34.00;1.00
11091;DHT22;5599;52.210;21.046;2022-08-19T12:16:59;34.10;1.00
11091;DHT22;5599;52.210;21.046;2022-08-19T12:19:36;34.10;99.90
11091;DHT22;5599;52.210;21.046;2022-08-19T12:22:07;34.10;1.00
11091;DHT22;5599;52.210;21.046;2022-08-19T12:24:39;34.00;1.00
11091;DHT22;5599;52.210;21.046;2022-08-19T12:27:08;33.80;1.00
11091;DHT22;5599;52.210;21.046;2022-08-19T12:29:39;33.90;1.00
11091;DHT22;5599;52.210;21.046;2022-08-19T12:32:09;34.00;1.00
11091;DHT22;5599;52.210;21.046;2022-08-19T12:34:39;34.00;1.00
11091;DHT22;5599;52.210;21.046;2022-08-19T12:37:09;33.90;1.00
11091;DHT22;5599;52.210;21.046;2022-08-19T12:39:41;34.00;1.00
11091;DHT22;5599;52.210;21.046;2022-08-19T12:42:12;34.20;1.00
11091;DHT22;5599;52.210;21.046;2022-08-19T12:44:43;34.20;1.00
11091;DHT22;5599;52.210;21.046;2022-08-19T12:47:13;34.30;1.00
11091;DHT22;5599;52.210;21.046;2022-08-19T12:49:43;34.20;1.00
11091;DHT22;5599;52.210;21.046;2022-08-19T12:52:23;34.10;1.00
11091;DHT22;5599;52.210;21.046;2022-08-19T12:54:55;33.90;1.00
11091;DHT22;5599;52.210;21.046;2022-08-19T12:57:27;34.10;1.00
11091;DHT22;5599;52.210;21.046;2022-08-19T13:00:03;34.10;1.00
11091;DHT22;5599;52.210;21.046;2022-08-19T13:02:34;34.00;1.00
11091;DHT22;5599;52.210;21.046;2022-08-19T13:05:08;33.80;1.00
11091;DHT22;5599;52.210;21.046;2022-08-19T13:07:40;33.90;1.00
11091;DHT22;5599;52.210;21.046;2022-08-19T13:10:14;33.80;1.00
11091;DHT22;5599;52.210;21.046;2022-08-19T13:12:46;33.80;1.00
11091;DHT22;5599;52.210;21.046;2022-08-19T13:15:17;33.80;1.00
11091;DHT22;5599;52.210;21.046;2022-08-19T13:17:54;33.90;1.00
11091;DHT22;5599;52.210;21.046;2022-08-19T13:20:25;33.70;1.00
11091;DHT22;5599;52.210;21.046;2022-08-19T13:22:55;33.50;1.00
11091;DHT22;5599;52.210;21.046;2022-08-19T13:25:26;33.60;1.00
11091;DHT22;5599;52.210;21.046;2022-08-19T13:27:56;33.70;1.00
11091;DHT22;5599;52.210;21.046;2022-08-19T13:30:26;33.60;1.00
11091;DHT22;5599;52.210;21.046;2022-08-19T13:33:13;33.70;1.00
11091;DHT22;5599;52.210;21.046;2022-08-19T13:36:03;33.70;1.00
11091;DHT22;5599;52.210;21.046;2022-08-19T13:38:35;33.50;1.00
11091;DHT22;5599;52.210;21.046;2022-08-19T13:41:07;33.40;1.00
11091;DHT22;5599;52.210;21.046;2022-08-19T13:43:41;33.50;1.00
11091;DHT22;5599;52.210;21.046;2022-08-19T13:46:12;33.50;1.00
11091;DHT22;5599;52.210;21.046;2022-08-19T13:48:42;33.50;1.00
11091;DHT22;5599;52.210;21.046;2022-08-19T13:51:12;33.60;1.00
11091;DHT22;5599;52.210;21.046;2022-08-19T13:53:44;33.60;1.00
11091;DHT22;5599;52.210;21.046;2022-08-19T13:56:18;33.40;1.00
11091;DHT22;5599;52.210;21.046;2022-08-19T13:58:53;33.40;1.00
11091;DHT22;5599;52.210;21.046;2022-08-19T14:01:27;33.40;1.00
11091;DHT22;5599;52.210;21.046;2022-08-19T14:03:58;33.40;1.00
11091;DHT22;5599;52.210;21.046;2022-08-19T14:06:28;33.30;1.00
11091;DHT22;5599;52.210;21.046;2022-08-19T14:08:57;33.40;1.00
11091;DHT22;5599;52.210;21.046;2022-08-19T14:11:29;33.40;1.00
11091;DHT22;5599;52.210;21.046;2022-08-19T14:13:59;33.50;1.00
11091;DHT22;5599;52.210;21.046;2022-08-19T14:16:28;33.40;1.00
11091;DHT22;5599;52.210;21.046;2022-08-19T14:18:58;33.40;1.00
11091;DHT22;5599;52.210;21.046;2022-08-19T14:21:28;33.50;1.00
11091;DHT22;5599;52.210;21.046;2022-08-19T14:23:58;33.50;1.00
11091;DHT22;5599;52.210;21.046;2022-08-19T14:26:29;33.50;1.00
11091;DHT22;5599;52.210;21.046;2022-08-19T14:29:00;33.50;99.90
11091;DHT22;5599;52.210;21.046;2022-08-19T14:31:30;33.60;99.90
11091;DHT22;5599;52.210;21.046;2022-08-19T14:33:59;33.50;99.90
11091;DHT22;5599;52.210;21.046;2022-08-19T14:36:29;33.50;99.90
11091;DHT22;5599;52.210;21.046;2022-08-19T14:39:06;33.20;99.90
11091;DHT22;5599;52.210;21.046;2022-08-19T14:41:40;33.10;99.90
11091;DHT22;5599;52.210;21.046;2022-08-19T14:44:11;33.00;99.90
11091;DHT22;5599;52.210;21.046;2022-08-19T14:46:41;33.00;99.90
11091;DHT22;5599;52.210;21.046;2022-08-19T14:49:16;33.10;99.90
11091;DHT22;5599;52.210;21.046;2022-08-19T14:51:46;33.10;99.90
11091;DHT22;5599;52.210;21.046;2022-08-19T14:54:16;33.10;99.90
11091;DHT22;5599;52.210;21.046;2022-08-19T14:56:47;33.00;99.90
11091;DHT22;5599;52.210;21.046;2022-08-19T14:59:19;32.90;99.90
11091;DHT22;5599;52.210;21.046;2022-08-19T15:01:49;32.90;99.90
11091;DHT22;5599;52.210;21.046;2022-08-19T15:04:19;32.90;99.90
11091;DHT22;5599;52.210;21.046;2022-08-19T15:06:48;32.80;99.90
11091;DHT22;5599;52.210;21.046;2022-08-19T15:09:18;32.80;99.90
11091;DHT22;5599;52.210;21.046;2022-08-19T15:11:49;32.70;99.90
11091;DHT22;5599;52.210;21.046;2022-08-19T15:14:19;32.60;99.90
11091;DHT22;5599;52.210;21.046;2022-08-19T15:16:49;32.50;99.90
11091;DHT22;5599;52.210;21.046;2022-08-19T15:19:18;32.50;99.90
11091;DHT22;5599;52.210;21.046;2022-08-19T15:21:48;32.60;99.90
11091;DHT22;5599;52.210;21.046;2022-08-19T15:24:18;32.70;99.90
11091;DHT22;5599;52.210;21.046;2022-08-19T15:26:49;32.70;99.90
11091;DHT22;5599;52.210;21.046;2022-08-19T15:29:19;32.40;99.90
11091;DHT22;5599;52.210;21.046;2022-08-19T15:31:49;32.30;99.90
11091;DHT22;5599;52.210;21.046;2022-08-19T15:34:21;32.20;99.90
11091;DHT22;5599;52.210;21.046;2022-08-19T15:36:51;32.10;99.90
11091;DHT22;5599;52.210;21.046;2022-08-19T15:39:21;32.20;99.90
11091;DHT22;5599;52.210;21.046;2022-08-19T15:41:52;32.20;99.90
11091;DHT22;5599;52.210;21.046;2022-08-19T15:44:21;32.20;1.00
11091;DHT22;5599;52.210;21.046;2022-08-19T15:46:51;32.00;1.00
11091;DHT22;5599;52.210;21.046;2022-08-19T15:49:21;32.10;99.90
11091;DHT22;5599;52.210;21.046;2022-08-19T15:51:51;32.10;99.90
11091;DHT22;5599;52.210;21.046;2022-08-19T15:54:21;32.10;99.90
11091;DHT22;5599;52.210;21.046;2022-08-19T15:56:52;32.20;99.90
11091;DHT22;5599;52.210;21.046;2022-08-19T15:59:39;32.10;99.90
11091;DHT22;5599;52.210;21.046;2022-08-19T16:02:31;32.20;99.90
11091;DHT22;5599;52.210;21.046;2022-08-19T16:05:22;32.10;99.90
11091;DHT22;5599;52.210;21.046;2022-08-19T16:08:10;31.90;99.90
11091;DHT22;5599;52.210;21.046;2022-08-19T16:10:41;31.80;99.90
11091;DHT22;5599;52.210;21.046;2022-08-19T16:13:13;31.70;99.90
11091;DHT22;5599;52.210;21.046;2022-08-19T16:15:42;31.60;99.90
11091;DHT22;5599;52.210;21.046;2022-08-19T16:18:13;31.50;99.90
11091;DHT22;5599;52.210;21.046;2022-08-19T16:20:42;31.40;99.90